createdAt,value
2023-02-03T00:00:09.201Z,1.20
2023-02-03T00:02:59.633Z,1.10
2023-02-03T00:05:28.404Z,1.30
2023-02-03T00:07:56.565Z,0.90
2023-02-03T00:10:24.763Z,1.10
2023-02-03T00:12:52.900Z,1.10
2023-02-03T00:15:23.167Z,1.40
2023-02-03T00:17:51.083Z,1.10
2023-02-03T00:20:19.444Z,1.40
2023-02-03T00:22:47.264Z,1.10
2023-02-03T00:25:15.200Z,0.90
2023-02-03T00:27:42.986Z,1.20
2023-02-03T00:30:12.425Z,1.10
2023-02-03T00:32:40.296Z,1.10
2023-02-03T00:35:08.610Z,1.20
2023-02-03T00:37:37.734Z,1.10
2023-02-03T00:40:06.308Z,1.30
2023-02-03T00:42:37.284Z,1.30
2023-02-03T00:45:06.587Z,1.90
2023-02-03T00:47:34.445Z,1.40
2023-02-03T00:50:02.577Z,1.20
2023-02-03T00:52:30.734Z,1.80
2023-02-03T00:54:58.619Z,1.80
2023-02-03T00:57:26.500Z,1.20
2023-02-03T00:59:55.958Z,1.70
2023-02-03T01:02:24.525Z,1.70
2023-02-03T01:04:53.565Z,1.70
2023-02-03T01:07:22.034Z,1.50
2023-02-03T01:09:50.470Z,1.40
2023-02-03T01:12:18.342Z,2.00
2023-02-03T01:14:46.193Z,1.60
2023-02-03T01:17:14.016Z,1.50
2023-02-03T01:19:41.787Z,1.60
2023-02-03T01:22:09.637Z,1.40
2023-02-03T01:24:37.521Z,1.40
2023-02-03T01:27:06.328Z,0.80
2023-02-03T01:29:35.457Z,1.30
2023-02-03T01:32:03.881Z,1.00
2023-02-03T01:34:31.834Z,1.40
2023-02-03T01:37:00.199Z,1.40
2023-02-03T01:39:29.605Z,1.20
2023-02-03T01:41:57.884Z,1.30
2023-02-03T01:44:52.313Z,1.70
2023-02-03T01:47:38.735Z,1.20
2023-02-03T01:50:18.669Z,1.10
2023-02-03T01:52:57.827Z,1.40
2023-02-03T01:55:35.006Z,0.90
2023-02-03T01:58:11.442Z,0.90
2023-02-03T02:00:40.103Z,1.20
2023-02-03T02:03:09.956Z,1.20
2023-02-03T02:05:49.048Z,1.00
2023-02-03T02:08:19.953Z,1.20
2023-02-03T02:10:48.788Z,1.10
2023-02-03T02:13:19.786Z,1.30
2023-02-03T02:16:20.935Z,1.00
2023-02-03T02:19:22.594Z,0.90
2023-02-03T02:23:20.451Z,1.00
2023-02-03T02:26:41.027Z,0.90
2023-02-03T02:29:36.906Z,0.70
2023-02-03T02:32:37.267Z,1.00
2023-02-03T02:35:43.414Z,0.90
2023-02-03T02:38:33.006Z,1.40
2023-02-03T02:41:43.866Z,1.30
2023-02-03T02:44:21.616Z,1.30
2023-02-03T02:46:56.938Z,0.60
2023-02-03T02:49:37.994Z,1.20
2023-02-03T02:52:09.879Z,1.20
2023-02-03T02:54:44.715Z,1.10
2023-02-03T02:57:15.967Z,1.00
2023-02-03T02:59:47.379Z,0.90
2023-02-03T03:02:15.463Z,1.80
2023-02-03T03:04:48.319Z,0.80
2023-02-03T03:07:26.551Z,1.10
2023-02-03T03:10:07.112Z,1.10
2023-02-03T03:12:40.321Z,0.90
2023-02-03T03:15:18.422Z,2.20
2023-02-03T03:17:58.157Z,1.00
2023-02-03T03:20:28.411Z,1.10
2023-02-03T03:23:06.442Z,1.70
2023-02-03T03:25:49.186Z,1.10
2023-02-03T03:28:26.764Z,0.80
2023-02-03T03:30:55.099Z,1.10
2023-02-03T03:33:24.080Z,0.80
2023-02-03T03:36:12.386Z,1.00
2023-02-03T03:38:56.842Z,1.40
2023-02-03T03:41:39.828Z,1.10
2023-02-03T03:44:14.554Z,1.10
2023-02-03T03:46:59.432Z,1.10
2023-02-03T03:49:29.715Z,1.10
2023-02-03T03:52:07.748Z,1.30
2023-02-03T03:54:39.034Z,1.00
2023-02-03T03:57:18.096Z,0.90
2023-02-03T03:59:49.346Z,1.00
2023-02-03T04:02:21.232Z,1.20
2023-02-03T04:04:51.048Z,1.30
2023-02-03T04:07:20.373Z,1.20
2023-02-03T04:09:48.378Z,0.90
2023-02-03T04:12:34.144Z,0.80
2023-02-03T04:15:02.007Z,1.30
2023-02-03T04:17:29.965Z,1.30
2023-02-03T04:19:57.779Z,1.00
2023-02-03T04:22:25.600Z,0.90
2023-02-03T04:24:53.391Z,1.20
2023-02-03T04:27:21.308Z,1.30
2023-02-03T04:29:50.739Z,0.80
2023-02-03T04:32:18.804Z,0.90
2023-02-03T04:34:46.957Z,1.10
2023-02-03T04:37:14.821Z,0.70
2023-02-03T04:39:42.703Z,1.60
2023-02-03T04:42:10.591Z,0.90
2023-02-03T04:44:38.335Z,1.30
2023-02-03T04:47:06.113Z,0.90
2023-02-03T04:49:33.926Z,0.90
2023-02-03T04:52:01.899Z,1.10
2023-02-03T04:54:29.749Z,1.10
2023-02-03T04:56:57.687Z,1.00
2023-02-03T04:59:25.634Z,0.90
2023-02-03T05:01:53.789Z,1.10
2023-02-03T05:04:22.113Z,0.90
2023-02-03T05:06:50.233Z,0.70
2023-02-03T05:09:18.561Z,1.20
2023-02-03T05:11:46.635Z,1.00
2023-02-03T05:14:14.433Z,0.70
2023-02-03T05:16:42.278Z,1.20
2023-02-03T05:19:10.381Z,1.00
2023-02-03T05:21:38.231Z,1.30
2023-02-03T05:24:07.903Z,0.80
2023-02-03T05:26:36.139Z,1.10
2023-02-03T05:29:04.207Z,1.00
2023-02-03T05:31:33.622Z,1.10
2023-02-03T05:34:01.710Z,1.70
2023-02-03T05:36:29.573Z,1.10
2023-02-03T05:38:57.353Z,1.00
2023-02-03T05:41:43.937Z,1.00
2023-02-03T05:44:12.255Z,1.10
2023-02-03T05:46:40.102Z,1.20
2023-02-03T05:49:08.221Z,1.10
2023-02-03T05:51:36.288Z,1.00
2023-02-03T05:54:04.272Z,1.00
2023-02-03T05:56:32.090Z,1.20
2023-02-03T05:58:59.949Z,1.00
2023-02-03T06:01:27.797Z,0.80
2023-02-03T06:03:55.925Z,0.80
2023-02-03T06:06:23.956Z,0.90
2023-02-03T06:08:56.245Z,0.80
2023-02-03T06:11:24.599Z,1.00
2023-02-03T06:13:52.763Z,1.10
2023-02-03T06:16:21.580Z,1.00
2023-02-03T06:18:49.465Z,0.90
2023-02-03T06:21:17.305Z,0.90
2023-02-03T06:23:45.097Z,1.30
2023-02-03T06:26:13.376Z,0.70
2023-02-03T06:28:41.278Z,0.80
2023-02-03T06:31:09.282Z,1.50
2023-02-03T06:33:37.208Z,0.90
2023-02-03T06:36:06.052Z,1.00
2023-02-03T06:38:33.913Z,0.90
2023-02-03T06:41:01.816Z,0.80
2023-02-03T06:43:29.757Z,0.80
2023-02-03T06:45:58.384Z,1.00
2023-02-03T06:48:26.528Z,0.80
2023-02-03T06:50:54.333Z,1.00
2023-02-03T06:53:22.150Z,1.00
2023-02-03T06:55:49.987Z,0.70
2023-02-03T06:58:17.818Z,1.00
2023-02-03T07:00:45.669Z,1.10
2023-02-03T07:03:13.442Z,1.10
2023-02-03T07:05:41.439Z,1.10
2023-02-03T07:08:09.269Z,1.10
2023-02-03T07:10:37.092Z,0.90
2023-02-03T07:13:07.041Z,1.00
2023-02-03T07:15:35.702Z,1.00
2023-02-03T07:18:04.190Z,1.00
2023-02-03T07:20:33.063Z,1.00
2023-02-03T07:23:01.060Z,0.90
2023-02-03T07:25:29.219Z,0.90
2023-02-03T07:27:57.388Z,1.60
2023-02-03T07:30:25.453Z,1.00
2023-02-03T07:32:53.908Z,0.90
2023-02-03T07:35:21.969Z,1.20
2023-02-03T07:37:50.002Z,1.10
2023-02-03T07:40:20.092Z,1.10
2023-02-03T07:42:50.117Z,0.90
2023-02-03T07:45:18.769Z,1.30
2023-02-03T07:47:46.638Z,2.30
2023-02-03T07:50:14.480Z,1.10
2023-02-03T07:52:42.305Z,1.00
2023-02-03T07:55:10.289Z,1.10
2023-02-03T07:57:43.410Z,1.00
2023-02-03T08:00:14.702Z,1.10
2023-02-03T08:02:43.939Z,1.10
2023-02-03T08:05:13.053Z,1.10
2023-02-03T08:07:41.786Z,1.00
2023-02-03T08:10:13.691Z,1.20
2023-02-03T08:12:46.579Z,0.90
2023-02-03T08:15:15.233Z,0.90
2023-02-03T08:17:44.545Z,0.90
2023-02-03T08:20:12.840Z,1.20
2023-02-03T08:22:40.872Z,0.90
2023-02-03T08:25:10.162Z,0.90
2023-02-03T08:27:38.971Z,0.70
2023-02-03T08:30:12.277Z,1.10
2023-02-03T08:32:40.625Z,1.00
2023-02-03T08:35:08.802Z,1.00
2023-02-03T08:37:36.768Z,0.80
2023-02-03T08:40:07.184Z,0.80
2023-02-03T08:42:35.115Z,1.00
2023-02-03T08:45:05.275Z,0.80
2023-02-03T08:47:33.596Z,1.20
2023-02-03T08:50:01.399Z,1.00
2023-02-03T08:52:29.324Z,0.90
2023-02-03T08:54:57.122Z,1.20
2023-02-03T08:57:25.056Z,1.20
2023-02-03T08:59:53.228Z,0.90
2023-02-03T09:02:21.256Z,1.30
2023-02-03T09:04:50.305Z,1.00
2023-02-03T09:07:18.580Z,1.00
2023-02-03T09:09:46.428Z,1.20
2023-02-03T09:12:14.631Z,1.40
2023-02-03T09:14:42.512Z,1.00
2023-02-03T09:17:10.969Z,1.40
2023-02-03T09:19:39.038Z,1.10
2023-02-03T09:22:06.992Z,1.20
2023-02-03T09:24:35.004Z,1.10
2023-02-03T09:27:02.893Z,1.00
2023-02-03T09:29:30.748Z,1.00
2023-02-03T09:31:58.693Z,1.10
2023-02-03T09:34:26.659Z,1.10
2023-02-03T09:36:54.582Z,1.20
2023-02-03T09:39:22.371Z,1.20
2023-02-03T09:42:11.593Z,1.20
2023-02-03T09:45:05.861Z,1.00
2023-02-03T09:47:41.560Z,1.00
2023-02-03T09:50:21.504Z,0.90
2023-02-03T09:52:50.579Z,1.00
2023-02-03T09:55:43.355Z,1.00
2023-02-03T09:58:18.383Z,1.20
2023-02-03T10:00:52.754Z,1.00
2023-02-03T10:03:40.732Z,1.00
2023-02-03T10:06:12.371Z,1.00
2023-02-03T10:09:20.710Z,1.10
2023-02-03T10:12:25.683Z,0.90
2023-02-03T10:15:32.087Z,1.00
2023-02-03T10:18:11.955Z,1.10
2023-02-03T10:20:51.287Z,0.90
2023-02-03T10:23:29.833Z,1.10
2023-02-03T10:26:03.364Z,1.00
2023-02-03T10:28:39.423Z,1.00
2023-02-03T10:31:19.344Z,0.80
2023-02-03T10:33:48.595Z,0.90
2023-02-03T10:36:55.280Z,1.00
2023-02-03T10:39:50.189Z,0.80
2023-02-03T10:42:19.534Z,1.00
2023-02-03T10:44:56.514Z,0.60
2023-02-03T10:47:39.839Z,0.90
2023-02-03T10:50:19.108Z,1.10
2023-02-03T10:52:47.671Z,0.70
2023-02-03T10:55:22.888Z,1.00
2023-02-03T10:57:52.135Z,0.90
2023-02-03T11:00:28.385Z,0.90
2023-02-03T11:03:30.902Z,1.20
2023-02-03T11:06:09.214Z,1.10
2023-02-03T11:08:42.290Z,1.10
2023-02-03T11:11:26.525Z,1.00
2023-02-03T11:14:03.561Z,1.30
2023-02-03T11:16:35.162Z,1.30
2023-02-03T11:19:26.631Z,1.10
2023-02-03T11:21:56.927Z,1.20
2023-02-03T11:24:32.822Z,1.40
2023-02-03T11:27:07.023Z,1.30
2023-02-03T11:29:39.405Z,1.40
2023-02-03T11:32:19.579Z,1.00
2023-02-03T11:35:00.365Z,0.90
2023-02-03T11:37:39.084Z,0.90
2023-02-03T11:40:06.836Z,0.90
2023-02-03T11:42:38.715Z,1.10
2023-02-03T11:45:25.611Z,0.90
2023-02-03T11:48:18.152Z,0.90
2023-02-03T11:50:57.781Z,0.80
2023-02-03T11:53:58.452Z,1.30
2023-02-03T11:56:41.965Z,1.20
2023-02-03T11:59:31.434Z,1.30
2023-02-03T12:02:47.834Z,1.30
2023-02-03T12:05:37.619Z,1.50
2023-02-03T12:08:32.543Z,1.40
2023-02-03T12:11:38.954Z,1.50
2023-02-03T12:14:28.802Z,1.00
2023-02-03T12:17:24.768Z,1.50
2023-02-03T12:20:30.658Z,1.40
2023-02-03T12:23:19.991Z,2.30
2023-02-03T12:26:07.470Z,2.70
2023-02-03T12:29:01.722Z,2.00
2023-02-03T12:31:48.276Z,1.60
2023-02-03T12:34:41.765Z,1.90
2023-02-03T12:37:22.434Z,1.60
2023-02-03T12:39:58.491Z,1.90
2023-02-03T12:42:53.646Z,1.50
2023-02-03T12:45:41.552Z,1.20
2023-02-03T12:48:19.703Z,1.20
2023-02-03T12:51:05.261Z,1.60
2023-02-03T12:53:50.166Z,1.70
2023-02-03T12:56:31.808Z,1.30
2023-02-03T12:59:09.450Z,1.60
2023-02-03T13:01:56.681Z,1.40
2023-02-03T13:04:39.275Z,1.50
2023-02-03T13:07:19.567Z,2.80
2023-02-03T13:09:58.045Z,2.40
2023-02-03T13:12:51.536Z,3.20
2023-02-03T13:15:25.967Z,3.10
2023-02-03T13:18:21.566Z,2.50
2023-02-03T13:20:50.097Z,2.20
2023-02-03T13:23:18.351Z,1.70
2023-02-03T13:26:16.724Z,1.80
2023-02-03T13:28:57.704Z,1.60
2023-02-03T13:31:37.830Z,1.40
2023-02-03T13:34:11.456Z,1.50
2023-02-03T13:37:39.304Z,1.50
2023-02-03T13:40:31.760Z,1.30
2023-02-03T13:43:10.419Z,1.10
2023-02-03T13:45:49.415Z,1.90
2023-02-03T13:48:28.911Z,1.40
2023-02-03T13:51:07.815Z,1.30
2023-02-03T13:53:41.294Z,1.40
2023-02-03T13:56:23.838Z,2.40
2023-02-03T13:59:13.900Z,1.40
2023-02-03T14:01:43.551Z,1.60
2023-02-03T14:04:23.544Z,1.20
2023-02-03T14:06:53.810Z,1.60
2023-02-03T14:09:30.400Z,1.40
2023-02-03T14:12:35.800Z,2.80
2023-02-03T14:15:33.641Z,2.20
2023-02-03T14:18:01.623Z,1.90
2023-02-03T14:20:29.444Z,3.70
2023-02-03T14:23:07.235Z,3.20
2023-02-03T14:25:43.903Z,2.40
2023-02-03T14:28:17.826Z,1.90
2023-02-03T14:31:10.467Z,1.70
2023-02-03T14:33:55.842Z,1.50
2023-02-03T14:36:54.693Z,1.70
2023-02-03T14:39:55.251Z,1.40
2023-02-03T14:43:10.207Z,2.90
2023-02-03T14:46:13.737Z,2.40
2023-02-03T14:49:03.103Z,2.00
2023-02-03T14:52:32.515Z,1.20
2023-02-03T14:55:00.265Z,2.00
2023-02-03T14:57:43.481Z,1.80
2023-02-03T15:00:20.376Z,1.80
2023-02-03T15:03:07.570Z,1.70
2023-02-03T15:05:48.826Z,1.80
2023-02-03T15:08:44.365Z,1.80
2023-02-03T15:11:27.640Z,1.80
2023-02-03T15:14:19.192Z,2.30
2023-02-03T15:16:55.972Z,2.20
2023-02-03T15:19:29.288Z,2.00
2023-02-03T15:21:57.183Z,2.40
2023-02-03T15:24:25.914Z,1.70
2023-02-03T15:26:56.509Z,2.30
2023-02-03T15:29:27.903Z,2.00
2023-02-03T15:34:47.388Z,1.60
2023-02-03T15:37:50.366Z,1.60
2023-02-03T15:40:23.357Z,1.90
2023-02-03T15:43:21.846Z,3.10
2023-02-03T15:46:28.389Z,2.90
2023-02-03T15:49:08.720Z,3.20
2023-02-03T15:51:46.218Z,3.20
2023-02-03T15:54:24.821Z,3.40
2023-02-03T15:57:21.994Z,2.10
2023-02-03T16:00:04.335Z,3.10
2023-02-03T16:02:46.230Z,3.10
2023-02-03T16:05:37.177Z,2.90
2023-02-03T16:08:40.454Z,3.20
2023-02-03T16:11:39.680Z,3.30
2023-02-03T16:14:12.046Z,2.80
2023-02-03T16:16:55.220Z,2.80
2023-02-03T16:19:38.390Z,2.00
2023-02-03T16:22:31.652Z,1.90
2023-02-03T16:25:17.756Z,2.00
2023-02-03T16:28:13.480Z,1.80
2023-02-03T16:31:17.950Z,2.00
2023-02-03T16:34:08.926Z,2.10
2023-02-03T16:37:02.397Z,2.10
2023-02-03T16:39:49.216Z,1.90
2023-02-03T16:42:38.861Z,2.30
2023-02-03T16:45:36.913Z,2.20
2023-02-03T16:48:24.213Z,2.20
2023-02-03T16:50:58.187Z,1.90
2023-02-03T16:53:30.918Z,2.20
2023-02-03T16:56:04.687Z,1.90
2023-02-03T16:58:32.749Z,1.80
2023-02-03T17:01:03.871Z,1.80
2023-02-03T17:03:35.890Z,1.50
2023-02-03T17:06:08.859Z,1.80
2023-02-03T17:08:38.897Z,2.10
2023-02-03T17:11:15.456Z,2.00
2023-02-03T17:13:43.906Z,2.20
2023-02-03T17:16:17.377Z,2.00
2023-02-03T17:18:46.459Z,2.70
2023-02-03T17:21:20.844Z,2.80
2023-02-03T17:23:49.196Z,3.00
2023-02-03T17:26:17.563Z,3.10
2023-02-03T17:28:45.472Z,2.50
2023-02-03T17:31:18.350Z,2.30
2023-02-03T17:33:50.569Z,2.00
2023-02-03T17:36:21.817Z,1.80
2023-02-03T17:55:27.923Z,2.10
2023-02-03T17:57:56.122Z,2.10
2023-02-03T18:00:24.043Z,2.70
2023-02-03T18:02:52.449Z,2.30
2023-02-03T18:05:21.176Z,2.50
2023-02-03T18:10:22.104Z,2.10
2023-02-03T18:12:50.296Z,2.40
2023-02-03T18:15:18.438Z,2.20
2023-02-03T18:17:46.264Z,2.50
2023-02-03T18:20:14.412Z,2.40
2023-02-03T18:22:44.252Z,1.90
2023-02-03T18:25:12.747Z,1.70
2023-02-03T18:27:40.639Z,1.70
2023-02-03T18:30:11.639Z,1.40
2023-02-03T18:32:39.566Z,1.40
2023-02-03T18:35:12.953Z,1.80
2023-02-03T18:37:40.839Z,2.00
2023-02-03T18:40:09.398Z,1.70
2023-02-03T18:42:37.285Z,2.40
2023-02-03T18:45:06.443Z,2.20
2023-02-03T18:47:35.317Z,2.10
2023-02-03T18:50:04.993Z,2.30
2023-02-03T18:52:32.862Z,1.80
2023-02-03T18:55:00.689Z,2.40
2023-02-03T18:57:28.794Z,2.30
2023-02-03T18:59:56.812Z,2.40
2023-02-03T19:02:25.782Z,2.40
2023-02-03T19:04:53.748Z,2.00
2023-02-03T19:07:21.591Z,2.30
2023-02-03T19:09:49.537Z,2.20
2023-02-03T19:12:17.353Z,2.20
2023-02-03T19:14:45.170Z,2.40
2023-02-03T19:17:12.975Z,2.80
2023-02-03T19:19:40.783Z,2.60
2023-02-03T19:22:08.654Z,2.60
2023-02-03T19:24:36.767Z,2.50
2023-02-03T19:27:04.806Z,2.70
2023-02-03T19:29:32.958Z,2.60
2023-02-03T19:32:00.866Z,3.00
2023-02-03T19:34:28.731Z,2.80
2023-02-03T19:36:59.097Z,2.50
2023-02-03T19:39:27.004Z,3.00
2023-02-03T19:41:54.889Z,3.20
2023-02-03T19:44:22.677Z,3.10
2023-02-03T19:46:50.793Z,3.00
2023-02-03T19:49:19.507Z,3.10
2023-02-03T19:51:47.715Z,3.00
2023-02-03T19:54:16.794Z,3.00
2023-02-03T19:56:45.057Z,2.70
2023-02-03T19:59:13.000Z,3.30
2023-02-03T20:01:40.885Z,3.60
2023-02-03T20:04:08.793Z,3.60
2023-02-03T20:06:36.722Z,3.80
2023-02-03T20:09:06.232Z,4.00
2023-02-03T20:11:34.243Z,4.20
2023-02-03T20:14:02.108Z,4.00
2023-02-03T20:16:30.002Z,4.40
2023-02-03T20:19:00.643Z,4.20
2023-02-03T20:21:28.625Z,4.50
2023-02-03T20:23:56.705Z,4.00
2023-02-03T20:26:24.587Z,3.70
2023-02-03T20:28:52.438Z,4.00
2023-02-03T20:31:21.401Z,3.90
2023-02-03T20:33:49.587Z,3.50
2023-02-03T20:36:17.402Z,3.20
2023-02-03T20:38:45.844Z,2.80
2023-02-03T20:41:13.795Z,3.00
2023-02-03T20:43:41.704Z,3.20
2023-02-03T20:46:13.518Z,3.10
2023-02-03T20:48:41.788Z,3.30
2023-02-03T20:51:15.425Z,3.30
2023-02-03T20:53:47.966Z,3.80
2023-02-03T20:56:21.367Z,3.40
2023-02-03T20:58:49.379Z,4.90
2023-02-03T21:01:22.545Z,3.90
2023-02-03T21:04:10.191Z,3.60
2023-02-03T21:06:39.847Z,4.10
2023-02-03T21:09:17.646Z,3.60
2023-02-03T21:11:45.715Z,3.70
2023-02-03T21:14:29.087Z,3.70
2023-02-03T21:16:56.916Z,3.90
2023-02-03T21:19:32.788Z,6.20
2023-02-03T21:22:18.113Z,6.00
2023-02-03T21:25:00.621Z,6.90
2023-02-03T21:27:34.599Z,5.70
2023-02-03T21:30:28.418Z,7.10
2023-02-03T21:32:58.437Z,7.40
2023-02-03T21:35:33.795Z,6.60
2023-02-03T21:38:16.803Z,5.60
2023-02-03T21:40:44.592Z,5.50
2023-02-03T21:43:18.097Z,5.70
2023-02-03T21:45:45.956Z,6.20
2023-02-03T21:48:32.497Z,6.50
2023-02-03T21:51:21.089Z,6.80
2023-02-03T21:54:03.699Z,5.60
2023-02-03T21:56:39.998Z,6.00
2023-02-03T21:59:42.305Z,6.20
2023-02-03T22:02:56.682Z,6.20
2023-02-03T22:05:24.807Z,5.60
2023-02-03T22:07:53.026Z,5.70
2023-02-03T22:10:20.908Z,6.20
2023-02-03T22:12:49.143Z,6.30
2023-02-03T22:15:17.393Z,7.30
2023-02-03T22:17:48.203Z,7.30
2023-02-03T22:20:16.231Z,6.70
2023-02-03T22:22:44.191Z,6.60
2023-02-03T22:25:12.129Z,6.30
2023-02-03T22:27:40.009Z,6.20
2023-02-03T22:30:13.781Z,7.00
2023-02-03T22:32:42.104Z,6.70
2023-02-03T22:35:10.777Z,6.90
2023-02-03T22:37:38.636Z,6.40
2023-02-03T22:40:07.054Z,5.90
2023-02-03T22:42:35.322Z,6.70
2023-02-03T22:45:03.920Z,5.20
2023-02-03T22:47:31.913Z,5.70
2023-02-03T22:49:59.830Z,5.90
2023-02-03T22:52:27.780Z,5.70
2023-02-03T22:54:55.601Z,5.90
2023-02-03T22:57:24.297Z,6.10
2023-02-03T22:59:52.155Z,5.60
2023-02-03T23:02:19.991Z,5.30
2023-02-03T23:04:47.986Z,5.70
2023-02-03T23:07:16.237Z,6.10
2023-02-03T23:09:44.083Z,6.00
2023-02-03T23:12:11.984Z,5.70
2023-02-03T23:14:39.793Z,6.30
2023-02-03T23:17:08.046Z,5.30
2023-02-03T23:19:35.913Z,5.40
2023-02-03T23:22:03.730Z,5.50
2023-02-03T23:24:31.697Z,5.30
2023-02-03T23:26:59.673Z,5.70
2023-02-03T23:29:27.749Z,5.60
2023-02-03T23:31:55.825Z,5.10
2023-02-03T23:34:42.504Z,5.50
2023-02-03T23:37:10.756Z,6.00
2023-02-03T23:39:38.595Z,5.30
2023-02-03T23:42:06.642Z,5.70
2023-02-03T23:44:34.696Z,5.50
2023-02-03T23:47:03.309Z,4.70
2023-02-03T23:49:31.479Z,5.20
2023-02-03T23:52:00.048Z,5.10
2023-02-03T23:54:28.143Z,5.10
2023-02-03T23:56:56.288Z,5.50
2023-02-03T23:59:24.313Z,5.00
